Time;durP1;ratioP1;P1;durP2;ratioP2;P2;SDS_P1;SDS_P2;PMS_P1;PMS_P2;Temp;Humidity;BMP_temperature;BMP_pressure;BME280_temperature;BME280_humidity;BME280_pressure;Samples;Min_cycle;Max_cycle;Signal;HPM_P1;HPM_P2
2021/01/24 00:00:21;;;;;;;20.10;8.27;;;;;;;7.79;65.82;97053.25;119979;1150;104417;-68
2021/01/24 00:03:03;;;;;;;20.63;8.87;;;;;;;7.70;66.21;97062.08;120003;1149;104361;-65
2021/01/24 00:05:31;;;;;;;19.70;7.90;;;;;;;7.67;66.50;97059.72;120012;1150;104349;-68
2021/01/24 00:08:03;;;;;;;20.30;8.37;;;;;;;7.62;66.43;97043.42;120151;1151;104462;-69
2021/01/24 00:10:30;;;;;;;21.67;8.93;;;;;;;7.55;66.80;97045.79;120123;1150;104917;-70
2021/01/24 00:12:57;;;;;;;22.50;9.47;;;;;;;7.50;66.09;97032.18;120083;1150;104792;-73
2021/01/24 00:15:24;;;;;;;22.40;9.50;;;;;;;7.45;66.65;97044.02;120085;1150;104435;-70
2021/01/24 00:17:51;;;;;;;21.03;9.27;;;;;;;7.41;67.02;97039.98;120085;1150;104450;-70
2021/01/24 00:20:18;;;;;;;21.77;9.37;;;;;;;7.38;66.44;97048.20;120185;1149;104338;-71
2021/01/24 00:22:45;;;;;;;23.33;9.80;;;;;;;7.35;67.18;97050.27;120213;1150;104448;-73
2021/01/24 00:25:12;;;;;;;19.90;8.73;;;;;;;7.32;66.94;97035.53;120121;1149;104413;-78
2021/01/24 00:27:40;;;;;;;22.97;9.63;;;;;;;7.29;67.27;97031.38;120126;1148;104441;-71
2021/01/24 00:30:11;;;;;;;23.73;10.00;;;;;;;7.27;66.78;97035.13;120222;1149;104448;-72
2021/01/24 00:32:39;;;;;;;23.97;9.87;;;;;;;7.26;67.51;97030.80;120126;1150;104568;-71
2021/01/24 00:35:09;;;;;;;23.17;9.90;;;;;;;7.21;66.85;97023.31;120130;1149;104462;-72
2021/01/24 00:37:39;;;;;;;22.10;9.10;;;;;;;7.17;66.84;97018.42;120159;1150;104408;-76
2021/01/24 00:40:12;;;;;;;20.70;8.57;;;;;;;7.14;67.19;97022.20;120130;1150;104416;-77
2021/01/24 00:42:39;;;;;;;21.27;8.03;;;;;;;7.10;67.91;97013.72;120088;1150;104388;-74
2021/01/24 00:45:08;;;;;;;18.65;8.15;;;;;;;7.08;68.03;97009.53;119872;1150;104417;-74
2021/01/24 00:47:36;;;;;;;19.80;8.50;;;;;;;7.04;68.12;97003.70;119959;1150;104400;-72
2021/01/24 00:50:06;;;;;;;21.90;9.10;;;;;;;7.03;67.38;96998.54;119935;1150;104382;-70
2021/01/24 00:52:33;;;;;;;23.13;7.93;;;;;;;7.02;68.02;96994.23;119799;1150;104400;-79
2021/01/24 00:55:01;;;;;;;20.13;8.00;;;;;;;6.99;67.91;97001.47;119682;1149;104847;-71
2021/01/24 00:57:30;;;;;;;21.60;8.63;;;;;;;6.97;68.53;96998.13;119871;1149;104679;-72
2021/01/24 00:59:57;;;;;;;23.10;9.20;;;;;;;6.96;68.25;96987.70;119803;1149;104755;-73
2021/01/24 01:02:27;;;;;;;21.37;9.80;;;;;;;6.94;68.68;96987.02;119942;1150;104471;-73
2021/01/24 01:04:54;;;;;;;21.87;9.30;;;;;;;6.92;68.17;96987.16;121549;1149;104374;-73
2021/01/24 01:07:21;;;;;;;18.67;8.77;;;;;;;6.93;68.88;96982.70;119853;1149;104906;-72
2021/01/24 01:09:49;;;;;;;20.17;8.17;;;;;;;6.96;68.44;96979.78;119919;1149;104479;-68
2021/01/24 01:12:16;;;;;;;20.90;9.03;;;;;;;6.98;68.37;96975.19;120229;1149;104345;-71
2021/01/24 01:14:43;;;;;;;21.05;8.85;;;;;;;7.00;68.77;96970.59;120537;1149;104444;-72
2021/01/24 01:17:11;;;;;;;21.03;8.83;;;;;;;7.01;68.53;96974.91;119970;1150;104441;-73
2021/01/24 01:19:41;;;;;;;18.70;7.87;;;;;;;7.02;68.51;96966.00;119958;1149;104345;-72
2021/01/24 01:22:10;;;;;;;20.53;8.17;;;;;;;7.03;68.57;96972.11;119734;1150;104479;-72
2021/01/24 01:24:37;;;;;;;19.33;8.23;;;;;;;7.04;68.60;96963.20;120423;1149;104444;-71
2021/01/24 01:27:04;;;;;;;19.87;8.80;;;;;;;7.02;69.35;96960.72;119934;1149;104476;-71
2021/01/24 01:29:31;;;;;;;21.13;9.13;;;;;;;7.00;68.97;96960.02;119872;1150;104452;-71
2021/01/24 01:31:59;;;;;;;18.23;8.33;;;;;;;6.97;68.86;96955.83;119964;1149;104423;-72
2021/01/24 01:34:28;;;;;;;22.10;8.57;;;;;;;6.95;68.94;96951.67;119938;1149;104493;-71
2021/01/24 01:36:55;;;;;;;23.23;9.60;;;;;;;6.91;69.65;96953.78;119940;1149;104455;-72
2021/01/24 01:39:22;;;;;;;20.70;8.83;;;;;;;6.89;69.09;96957.52;119857;1149;104414;-71
2021/01/24 01:41:48;;;;;;;20.27;9.23;;;;;;;6.87;69.67;96957.67;120082;1150;104515;-71
2021/01/24 01:44:17;;;;;;;19.20;8.40;;;;;;;6.90;70.06;96969.77;120031;1149;104413;-71
2021/01/24 01:46:43;;;;;;;19.27;8.80;;;;;;;6.93;69.83;96966.84;120033;1149;104614;-73
2021/01/24 01:49:11;;;;;;;21.17;8.93;;;;;;;6.94;69.42;96960.58;119920;1150;104438;-71
2021/01/24 01:51:38;;;;;;;20.45;8.25;;;;;;;6.96;70.13;96967.37;120020;1149;104818;-71
2021/01/24 01:54:05;;;;;;;17.03;7.43;;;;;;;6.99;70.18;96964.45;119904;1149;104477;-72
2021/01/24 01:56:32;;;;;;;18.70;7.85;;;;;;;6.99;70.24;96967.10;119999;1149;104444;-72
2021/01/24 01:58:59;;;;;;;21.20;8.23;;;;;;;6.96;70.02;96975.31;119953;1149;103168;-70
2021/01/24 02:01:43;;;;;;;20.77;8.77;;;;;;;6.95;69.60;96965.71;120132;1149;104317;-74
2021/01/24 02:04:52;;;;;;;20.80;8.70;;;;;;;6.94;69.86;96969.33;119982;1149;105054;-72
2021/01/24 02:07:28;;;;;;;20.63;9.70;;;;;;;6.97;69.89;96961.12;120033;1151;104393;-72
2021/01/24 02:10:09;;;;;;;20.53;8.80;;;;;;;6.99;70.48;96955.70;120657;1149;104432;-72
2021/01/24 02:12:51;;;;;;;20.77;9.20;;;;;;;7.00;69.98;96947.63;120105;1151;104448;-73
2021/01/24 02:15:21;;;;;;;18.80;7.80;;;;;;;7.01;70.27;96948.47;120170;1149;104347;-73
2021/01/24 02:17:59;;;;;;;17.20;7.67;;;;;;;7.03;70.14;96948.32;120051;1149;104780;-73
2021/01/24 02:20:41;;;;;;;18.17;7.83;;;;;;;7.02;70.65;96944.00;120794;1149;104512;-72
2021/01/24 02:23:18;;;;;;;18.13;7.70;;;;;;;7.00;70.53;96944.98;120187;1149;104692;-71
2021/01/24 02:25:56;;;;;;;19.33;8.27;;;;;;;6.97;70.74;96939.16;120087;1150;104384;-71
2021/01/24 02:28:48;;;;;;;18.17;7.27;;;;;;;6.91;70.80;96930.00;120191;1150;104455;-71
2021/01/24 02:31:17;;;;;;;16.37;6.60;;;;;;;6.84;70.68;96928.89;120075;1150;104361;-72
2021/01/24 02:33:49;;;;;;;14.70;6.47;;;;;;;6.80;70.65;96930.14;120111;1149;104342;-73
2021/01/24 02:36:21;;;;;;;15.57;6.57;;;;;;;6.77;70.61;96922.48;121123;1148;104536;-72
2021/01/24 02:38:48;;;;;;;16.30;6.80;;;;;;;6.72;70.36;96916.78;120162;1150;104435;-71
2021/01/24 02:41:17;;;;;;;15.37;7.00;;;;;;;6.72;71.33;96916.78;120157;1150;103104;-73
2021/01/24 02:43:47;;;;;;;16.07;6.90;;;;;;;6.69;70.88;96909.98;120116;1151;104553;-72
2021/01/24 02:46:19;;;;;;;15.20;6.90;;;;;;;6.67;71.23;96906.66;120182;1150;104366;-72
2021/01/24 02:48:49;;;;;;;18.03;7.10;;;;;;;6.68;71.52;96916.25;120145;1150;104345;-73
2021/01/24 02:51:21;;;;;;;14.00;6.40;;;;;;;6.68;70.87;96916.25;120146;1150;104371;-74
2021/01/24 02:53:50;;;;;;;17.23;6.57;;;;;;;6.68;71.29;96905.68;120192;1150;104440;-72
2021/01/24 02:56:23;;;;;;;15.30;6.17;;;;;;;6.68;71.40;96903.04;120085;1150;104380;-75
2021/01/24 02:58:56;;;;;;;15.80;5.90;;;;;;;6.69;71.23;96907.34;119992;1151;104518;-72
2021/01/24 03:01:23;;;;;;;15.20;5.90;;;;;;;6.70;71.72;96898.45;120025;1149;104430;-73
2021/01/24 03:03:50;;;;;;;14.73;5.60;;;;;;;6.71;71.28;96900.12;119963;1150;104367;-71
2021/01/24 03:06:17;;;;;;;14.40;5.33;;;;;;;6.72;71.89;96898.30;120885;1150;102331;-73
2021/01/24 03:08:48;;;;;;;11.07;4.83;;;;;;;6.72;71.70;96895.66;119964;1149;104528;-73
2021/01/24 03:11:21;;;;;;;11.13;4.80;;;;;;;6.72;71.24;96898.30;120170;1150;104387;-72
2021/01/24 03:14:01;;;;;;;12.00;5.73;;;;;;;6.74;72.12;96888.42;120084;1149;104434;-72
2021/01/24 03:16:31;;;;;;;10.77;5.20;;;;;;;6.76;71.46;96897.04;122493;1148;101874;-72
2021/01/24 03:19:02;;;;;;;12.73;5.30;;;;;;;6.77;71.92;96896.06;119985;1149;104425;-69
2021/01/24 03:21:33;;;;;;;12.83;5.13;;;;;;;6.75;71.85;96893.55;120058;1149;104368;-73
2021/01/24 03:24:04;;;;;;;12.30;5.40;;;;;;;6.75;71.87;96893.55;120076;1149;104732;-72
2021/01/24 03:26:32;;;;;;;12.63;5.63;;;;;;;6.74;71.49;96894.52;119981;1149;104489;-72
2021/01/24 03:29:00;;;;;;;10.83;4.63;;;;;;;6.72;72.17;96885.08;120585;1150;104444;-72
2021/01/24 03:31:29;;;;;;;9.60;4.60;;;;;;;6.70;72.42;96878.13;120908;1150;102979;-72
2021/01/24 03:33:59;;;;;;;9.87;4.40;;;;;;;6.70;72.43;96875.49;120059;1150;104378;-72
2021/01/24 03:36:26;;;;;;;12.03;4.83;;;;;;;6.70;71.96;96867.56;120061;1149;104441;-72
2021/01/24 03:38:54;;;;;;;8.63;4.60;;;;;;;6.74;72.25;96864.64;120046;1150;104406;-73
2021/01/24 03:41:25;;;;;;;9.40;4.63;;;;;;;6.77;72.61;96862.53;119974;1150;104503;-72
2021/01/24 03:43:52;;;;;;;10.40;4.87;;;;;;;6.82;72.57;96849.73;120084;1150;104360;-73
2021/01/24 03:46:19;;;;;;;15.77;5.43;;;;;;;6.87;72.33;96849.33;119936;1150;104429;-70
2021/01/24 03:48:49;;;;;;;11.80;4.80;;;;;;;6.91;72.12;96847.22;120101;1149;104403;-72
2021/01/24 03:51:15;;;;;;;9.53;4.47;;;;;;;6.95;72.03;96843.31;120089;1150;104476;-72
2021/01/24 03:53:42;;;;;;;10.87;4.90;;;;;;;6.90;71.76;96853.48;120008;1150;104436;-72
2021/01/24 03:56:09;;;;;;;7.00;3.97;;;;;;;6.86;72.59;96845.02;120236;1150;104348;-72
2021/01/24 03:58:36;;;;;;;9.43;4.20;;;;;;;6.83;72.19;96837.37;120211;1150;104423;-73
2021/01/24 04:01:07;;;;;;;8.03;3.63;;;;;;;6.82;72.80;96838.34;120179;1149;104444;-71
2021/01/24 04:03:34;;;;;;;7.13;3.87;;;;;;;6.85;72.90;96851.28;120052;1150;104435;-71
2021/01/24 04:06:01;;;;;;;8.33;4.10;;;;;;;6.85;72.52;96851.28;119992;1150;104506;-70
2021/01/24 04:08:28;;;;;;;5.87;3.23;;;;;;;6.83;72.73;96846.12;119941;1149;104404;-71
2021/01/24 04:10:55;;;;;;;5.37;3.23;;;;;;;6.83;72.45;96846.12;120781;1150;104357;-69
2021/01/24 04:13:22;;;;;;;9.47;3.80;;;;;;;6.83;72.47;96837.37;121026;1150;104363;-70
2021/01/24 04:15:50;;;;;;;7.40;3.87;;;;;;;6.82;72.21;96838.34;120134;1150;104946;-71
2021/01/24 04:18:16;;;;;;;9.40;3.77;;;;;;;6.80;72.58;96838.47;120053;1149;104333;-71
2021/01/24 04:20:50;;;;;;;7.37;3.67;;;;;;;6.79;73.01;96826.23;120018;1150;104445;-72
2021/01/24 04:23:17;;;;;;;6.90;3.30;;;;;;;6.80;72.25;96827.91;120096;1150;104339;-71
2021/01/24 04:25:44;;;;;;;7.60;3.40;;;;;;;6.79;72.25;96828.06;120079;1150;104450;-73
2021/01/24 04:28:11;;;;;;;10.10;3.70;;;;;;;6.77;72.31;96828.19;120029;1149;104367;-73
2021/01/24 04:30:38;;;;;;;4.97;3.30;;;;;;;6.76;72.29;96826.52;120221;1150;104335;-72
2021/01/24 04:33:08;;;;;;;7.53;3.93;;;;;;;6.71;72.33;96823.50;120170;1149;104410;-72
2021/01/24 04:35:35;;;;;;;8.30;3.40;;;;;;;6.70;73.12;96827.94;120187;1150;104519;-72
2021/01/24 04:38:03;;;;;;;5.50;3.33;;;;;;;6.70;72.79;96822.66;120188;1150;104502;-70
2021/01/24 04:40:30;;;;;;;7.37;3.60;;;;;;;6.70;72.87;96811.27;120115;1151;104485;-70
2021/01/24 04:42:57;;;;;;;8.98;3.80;;;;;;;6.69;72.52;96813.05;120006;1150;105002;-69
2021/01/24 04:45:28;;;;;;;7.07;3.77;;;;;;;6.70;73.16;96811.27;120031;1150;104370;-71
2021/01/24 04:47:56;;;;;;;6.07;3.30;;;;;;;6.72;72.98;96819.88;120048;1150;104339;-73
2021/01/24 04:50:26;;;;;;;7.60;3.70;;;;;;;6.72;72.87;96816.39;119943;1150;104439;-72
2021/01/24 04:52:57;;;;;;;9.87;3.97;;;;;;;6.74;73.06;96822.37;120231;1149;104368;-71
2021/01/24 04:55:25;;;;;;;6.87;4.07;;;;;;;6.75;72.75;96816.11;120112;1148;104345;-73
2021/01/24 04:57:56;;;;;;;7.87;4.23;;;;;;;6.75;73.12;96811.64;120685;1149;104345;-73
2021/01/24 05:00:26;;;;;;;9.07;4.57;;;;;;;6.74;73.19;96811.80;120026;1150;104419;-72
2021/01/24 05:02:56;;;;;;;9.40;4.33;;;;;;;6.76;73.43;96808.02;120171;1150;104416;-73
2021/01/24 05:05:23;;;;;;;8.90;4.15;;;;;;;6.78;73.52;96813.18;120003;1149;104411;-73
2021/01/24 05:07:54;;;;;;;9.70;4.53;;;;;;;6.81;73.61;96813.72;120085;1150;104428;-72
2021/01/24 05:10:29;;;;;;;8.67;4.27;;;;;;;6.83;73.59;96803.02;119908;1150;104423;-72
2021/01/24 05:12:58;;;;;;;10.60;4.80;;;;;;;6.84;72.96;96808.14;120394;1149;104359;-73
2021/01/24 05:15:28;;;;;;;9.33;4.27;;;;;;;6.88;73.12;96806.06;120928;1150;104517;-72
2021/01/24 05:18:00;;;;;;;9.87;4.80;;;;;;;6.89;73.11;96806.88;120099;1150;104351;-72
2021/01/24 05:20:32;;;;;;;11.17;5.40;;;;;;;6.90;73.52;96806.75;120202;1149;104465;-73
2021/01/24 05:23:04;;;;;;;10.90;4.77;;;;;;;6.91;72.93;96808.42;120000;1150;104370;-72
2021/01/24 05:25:34;;;;;;;13.90;5.80;;;;;;;6.93;73.69;96805.63;120050;1150;104354;-72
2021/01/24 05:28:23;;;;;;;13.93;5.73;;;;;;;6.93;73.02;96802.98;120090;1149;104639;-71
2021/01/24 05:31:09;;;;;;;13.37;5.53;;;;;;;6.94;73.38;96804.64;120203;1150;104457;-69
2021/01/24 05:33:45;;;;;;;14.13;5.67;;;;;;;6.97;73.11;96805.17;120076;1150;104365;-69
2021/01/24 05:36:11;;;;;;;13.10;6.05;;;;;;;6.99;73.45;96797.13;120298;1149;104914;-73
2021/01/24 05:38:38;;;;;;;15.40;6.03;;;;;;;7.00;73.72;96798.78;120312;1150;104447;-72
2021/01/24 05:41:12;;;;;;;10.53;5.07;;;;;;;7.02;73.26;96806.55;120150;1150;104660;-72
2021/01/24 05:43:42;;;;;;;11.77;6.00;;;;;;;7.01;73.81;96803.09;120130;1149;104409;-72
2021/01/24 05:46:13;;;;;;;14.20;6.15;;;;;;;7.03;73.24;96805.58;120389;1150;104339;-73
2021/01/24 05:48:50;;;;;;;16.67;6.60;;;;;;;7.05;73.48;96809.76;120233;1150;104462;-71
2021/01/24 05:51:17;;;;;;;12.53;5.83;;;;;;;7.06;73.37;96811.42;120244;1150;104340;-71
2021/01/24 05:53:55;;;;;;;15.07;6.40;;;;;;;7.04;73.22;96808.09;120196;1150;104549;-72
2021/01/24 05:56:25;;;;;;;16.70;6.30;;;;;;;7.07;73.30;96809.60;120111;1149;104944;-71
2021/01/24 05:58:57;;;;;;;13.33;6.30;;;;;;;7.08;73.52;96812.11;120112;1150;104400;-72
2021/01/24 06:01:28;;;;;;;11.93;5.53;;;;;;;7.09;73.85;96816.42;120073;1150;104411;-72
2021/01/24 06:03:59;;;;;;;11.07;5.40;;;;;;;7.09;73.95;96816.42;120070;1150;104558;-72
2021/01/24 06:06:26;;;;;;;10.90;4.77;;;;;;;7.07;73.82;96813.09;121282;1150;104503;-73
2021/01/24 06:08:53;;;;;;;12.50;5.83;;;;;;;7.02;73.21;96822.41;120078;1150;104828;-72
2021/01/24 06:11:25;;;;;;;14.73;6.37;;;;;;;6.97;73.15;96821.03;120254;1150;104407;-72
2021/01/24 06:13:56;;;;;;;19.43;8.03;;;;;;;6.93;73.55;96818.84;120141;1148;104341;-70
2021/01/24 06:16:34;;;;;;;19.23;8.80;;;;;;;6.88;73.24;96827.20;120080;1150;104439;-70
2021/01/24 06:19:09;;;;;;;19.00;8.33;;;;;;;6.88;73.92;96826.36;120052;1149;104450;-70
2021/01/24 06:21:47;;;;;;;19.30;7.97;;;;;;;6.87;74.03;96832.62;120115;1149;104362;-72
2021/01/24 06:24:37;;;;;;;20.90;8.80;;;;;;;6.86;73.36;96831.80;120668;1149;104345;-72
2021/01/24 06:27:08;;;;;;;19.63;8.87;;;;;;;6.87;73.77;96835.27;120102;1150;104739;-72
2021/01/24 06:29:38;;;;;;;21.63;8.90;;;;;;;6.87;73.66;96822.90;119944;1151;104366;-70
2021/01/24 06:32:05;;;;;;;20.43;9.57;;;;;;;6.88;74.14;96832.49;120262;1150;104476;-71
2021/01/24 06:34:39;;;;;;;20.00;9.70;;;;;;;6.89;74.21;96835.95;120033;1149;104477;-71
2021/01/24 06:37:18;;;;;;;20.03;9.43;;;;;;;6.88;73.41;96837.78;120177;1149;104415;-71
2021/01/24 06:39:55;;;;;;;16.70;7.53;;;;;;;6.87;73.59;96830.83;120171;1149;104452;-72
2021/01/24 06:42:37;;;;;;;;;;;;;;;6.88;74.26;96826.36;120179;1150;104351;-71
2021/01/24 06:45:27;;;;;;;20.47;8.60;;;;;;;6.87;74.26;96828.19;120115;1148;104508;-71
2021/01/24 06:47:59;;;;;;;20.10;9.87;;;;;;;6.88;73.66;96815.78;120129;1150;104519;-71
2021/01/24 06:50:49;;;;;;;19.43;9.80;;;;;;;6.90;73.82;96821.77;120080;1149;104367;-72
2021/01/24 06:53:26;;;;;;;22.23;9.17;;;;;;;6.89;73.78;96820.95;120748;1148;104417;-72
2021/01/24 06:56:05;;;;;;;21.40;9.80;;;;;;;6.91;73.94;96824.28;120219;1149;104449;-73
2021/01/24 06:58:48;;;;;;;23.43;10.23;;;;;;;6.94;74.04;96831.08;120202;1150;104587;-73
2021/01/24 07:01:28;;;;;;;25.13;12.07;;;;;;;6.97;73.79;96825.50;120109;1149;104346;-70
2021/01/24 07:04:17;;;;;;;28.67;12.67;;;;;;;6.97;73.85;96831.61;119996;1151;104414;-72
2021/01/24 07:06:55;;;;;;;22.05;10.40;;;;;;;6.98;73.64;96827.98;120482;1149;104516;-72
2021/01/24 07:09:28;;;;;;;22.67;10.07;;;;;;;6.98;73.71;96835.09;120088;1151;104371;-72
2021/01/24 07:11:56;;;;;;;19.50;9.13;;;;;;;7.00;74.50;96830.50;120075;1151;104442;-72
2021/01/24 07:14:35;;;;;;;20.80;9.53;;;;;;;7.02;73.80;96830.34;120746;1150;104352;-71
2021/01/24 07:17:09;;;;;;;21.50;9.83;;;;;;;7.05;73.80;96822.98;120187;1149;104368;-72
2021/01/24 07:19:53;;;;;;;17.90;8.60;;;;;;;7.08;74.50;96825.33;120073;1150;104445;-72
2021/01/24 07:22:24;;;;;;;;;;;;;;;7.09;74.06;96827.00;120202;1150;104414;-73
2021/01/24 07:24:56;;;;;;;20.25;7.85;;;;;;;7.09;74.16;96813.78;120179;1149;104368;-73
2021/01/24 07:27:30;;;;;;;17.33;8.23;;;;;;;7.12;73.87;96820.58;120060;1149;104442;-71
2021/01/24 07:30:01;;;;;;;19.07;8.47;;;;;;;7.13;74.61;96807.20;120088;1150;104548;-71
2021/01/24 07:32:30;;;;;;;17.70;9.03;;;;;;;7.15;74.59;96801.78;120005;1150;104424;-71
2021/01/24 07:34:57;;;;;;;16.67;7.37;;;;;;;7.17;74.56;96802.47;120149;1150;104357;-72
2021/01/24 07:37:27;;;;;;;17.40;8.07;;;;;;;7.17;74.20;96804.27;120109;1149;104406;-72
2021/01/24 07:39:54;;;;;;;16.93;7.93;;;;;;;7.18;74.59;96798.00;120111;1150;104841;-72
2021/01/24 07:42:24;;;;;;;17.20;7.80;;;;;;;7.17;73.99;96797.18;120081;1150;104447;-72
2021/01/24 07:44:51;;;;;;;16.20;7.20;;;;;;;7.17;74.26;96798.98;119920;1150;104446;-71
2021/01/24 07:47:18;;;;;;;20.57;8.77;;;;;;;7.18;74.53;96808.58;120154;1150;104434;-72
2021/01/24 07:49:48;;;;;;;20.73;8.83;;;;;;;7.18;74.12;96804.13;120087;1149;104618;-71
2021/01/24 07:52:19;;;;;;;20.92;8.80;;;;;;;7.20;73.99;96801.33;120239;1150;104452;-72
2021/01/24 07:54:47;;;;;;;20.33;9.43;;;;;;;7.21;74.59;96801.20;120268;1150;104447;-69
2021/01/24 07:57:14;;;;;;;20.10;9.33;;;;;;;7.23;74.89;96801.04;120184;1149;104364;-70
2021/01/24 07:59:44;;;;;;;17.93;8.07;;;;;;;7.23;74.12;96801.04;120238;1150;104441;-74
2021/01/24 08:02:12;;;;;;;20.43;8.10;;;;;;;7.24;74.58;96792.98;120101;1150;104474;-72
2021/01/24 08:04:46;;;;;;;19.27;9.23;;;;;;;7.24;74.12;96789.48;120147;1150;104492;-71
2021/01/24 08:07:13;;;;;;;20.65;8.25;;;;;;;7.26;74.16;96795.46;120151;1150;104361;-72
2021/01/24 08:09:40;;;;;;;19.83;8.37;;;;;;;7.27;74.72;96786.55;120002;1149;104448;-71
2021/01/24 08:12:13;;;;;;;17.53;8.37;;;;;;;7.26;74.61;96783.09;120015;1150;104474;-72
2021/01/24 08:14:43;;;;;;;18.73;7.93;;;;;;;7.26;74.56;96776.95;120178;1150;104356;-72
2021/01/24 08:17:17;;;;;;;19.90;7.93;;;;;;;7.27;74.73;96783.91;120124;1150;104439;-72
2021/01/24 08:19:47;;;;;;;17.57;7.33;;;;;;;7.27;74.34;96775.97;120245;1150;104451;-71
2021/01/24 08:22:14;;;;;;;17.20;7.40;;;;;;;7.26;74.65;96788.38;120499;1150;104470;-74
2021/01/24 08:24:41;;;;;;;19.73;8.83;;;;;;;7.25;74.26;96778.78;120229;1150;104410;-70
2021/01/24 08:27:11;;;;;;;17.83;7.70;;;;;;;7.27;74.81;96770.69;121274;1149;104615;-73
2021/01/24 08:29:38;;;;;;;18.30;8.00;;;;;;;7.28;74.08;96769.70;120268;1149;104360;-71
2021/01/24 08:32:07;;;;;;;18.97;7.97;;;;;;;7.32;74.18;96767.62;120288;1149;104437;-71
2021/01/24 08:34:35;;;;;;;16.37;6.93;;;;;;;7.37;74.68;96775.91;120276;1151;104445;-72
2021/01/24 08:37:06;;;;;;;17.93;8.13;;;;;;;7.40;74.75;96767.69;120274;1150;104370;-72
2021/01/24 08:39:33;;;;;;;17.57;7.50;;;;;;;7.40;74.77;96757.95;120290;1150;104423;-73
2021/01/24 08:42:06;;;;;;;19.37;8.83;;;;;;;7.39;74.13;96752.80;120206;1149;104503;-71
2021/01/24 08:44:34;;;;;;;19.87;9.10;;;;;;;7.37;74.73;96762.69;120232;1149;104429;-70
2021/01/24 08:47:07;;;;;;;16.80;7.40;;;;;;;7.38;74.77;96767.84;120202;1149;104423;-72
2021/01/24 08:49:36;;;;;;;18.90;8.43;;;;;;;7.39;74.10;96768.66;120160;1151;104484;-73
2021/01/24 08:52:04;;;;;;;19.67;8.03;;;;;;;7.39;74.94;96774.80;120207;1150;104437;-74
2021/01/24 08:54:34;;;;;;;18.03;7.47;;;;;;;7.43;74.57;96776.17;120192;1150;104381;-72
2021/01/24 08:57:18;;;;;;;17.70;7.77;;;;;;;7.47;74.65;96776.70;120231;1150;104487;-70
2021/01/24 08:59:51;;;;;;;18.77;8.63;;;;;;;7.50;74.74;96781.69;120131;1149;104458;-72
2021/01/24 09:02:37;;;;;;;20.00;9.03;;;;;;;7.54;74.59;96782.24;120284;1150;104351;-71
2021/01/24 09:05:10;;;;;;;17.23;8.00;;;;;;;7.58;74.55;96775.64;120278;1150;104345;-73
2021/01/24 09:07:47;;;;;;;18.85;8.60;;;;;;;7.60;74.54;96785.11;120232;1149;104483;-73
2021/01/24 09:10:24;;;;;;;23.33;9.70;;;;;;;7.65;74.83;96783.84;120216;1149;104401;-70
2021/01/24 09:12:54;;;;;;;20.00;9.75;;;;;;;7.69;74.69;96793.96;120289;1150;104964;-75
2021/01/24 09:15:28;;;;;;;18.60;7.70;;;;;;;7.75;74.59;96781.94;120209;1151;104385;-72
2021/01/24 09:17:57;;;;;;;18.40;7.90;;;;;;;7.80;74.18;96787.61;120240;1149;104502;-74
2021/01/24 09:20:29;;;;;;;20.00;8.00;;;;;;;7.85;74.54;96798.58;120900;1149;104372;-73
2021/01/24 09:22:56;;;;;;;18.80;8.70;;;;;;;7.92;74.45;96788.25;120165;1148;104484;-73
2021/01/24 09:25:24;;;;;;;18.83;8.53;;;;;;;8.00;74.52;96783.00;120197;1149;104491;-73
2021/01/24 09:27:51;;;;;;;20.03;8.30;;;;;;;8.08;74.68;96762.88;120281;1150;104419;-72
2021/01/24 09:30:18;;;;;;;17.97;8.10;;;;;;;8.18;74.55;96771.58;120180;1150;104492;-72
2021/01/24 09:32:45;;;;;;;18.13;8.53;;;;;;;8.44;74.62;96763.67;120235;1150;104480;-72
2021/01/24 09:35:16;;;;;;;18.73;8.53;;;;;;;8.66;74.22;96771.30;120205;1151;104433;-72
2021/01/24 09:37:45;;;;;;;18.90;8.80;;;;;;;8.92;74.05;96771.28;120189;1150;104481;-70
2021/01/24 09:40:13;;;;;;;17.97;7.50;;;;;;;9.25;74.02;96774.08;120227;1150;104339;-71
2021/01/24 09:42:44;;;;;;;17.57;8.03;;;;;;;9.59;74.21;96772.34;120247;1150;105244;-70
2021/01/24 09:45:14;;;;;;;20.27;9.53;;;;;;;9.91;74.45;96760.14;120134;1148;104437;-71
2021/01/24 09:47:41;;;;;;;16.45;7.90;;;;;;;10.22;74.04;96759.48;120184;1150;104445;-71
2021/01/24 09:50:10;;;;;;;17.33;7.63;;;;;;;10.48;73.72;96748.71;121168;1149;101993;-70
2021/01/24 09:52:38;;;;;;;16.80;7.80;;;;;;;10.56;73.88;96759.34;120600;1150;104474;-71
2021/01/24 09:55:06;;;;;;;17.53;7.57;;;;;;;10.60;73.43;96756.34;120166;1150;104377;-72
2021/01/24 09:57:33;;;;;;;17.50;7.50;;;;;;;10.63;74.12;96746.19;120161;1149;104385;-72
2021/01/24 10:00:05;;;;;;;16.37;7.53;;;;;;;10.60;73.75;96751.84;120245;1149;104370;-72
2021/01/24 10:02:33;;;;;;;17.70;7.83;;;;;;;10.58;73.30;96748.52;120090;1150;104532;-74
2021/01/24 10:05:00;;;;;;;18.27;8.30;;;;;;;10.65;74.27;96761.96;120182;1149;104337;-72
2021/01/24 10:07:31;;;;;;;17.07;8.23;;;;;;;10.73;73.95;96764.61;120242;1150;104422;-71
2021/01/24 10:09:58;;;;;;;19.95;8.65;;;;;;;10.75;74.02;96756.48;120350;1149;104351;-71
2021/01/24 10:12:27;;;;;;;19.70;9.20;;;;;;;10.81;73.91;96767.25;120321;1150;104361;-70
2021/01/24 10:14:54;;;;;;;17.47;8.60;;;;;;;10.73;72.85;96761.95;120216;1149;104924;-75
2021/01/24 10:17:20;;;;;;;19.00;8.57;;;;;;;10.79;73.62;96747.98;120346;1150;104439;-76
2021/01/24 10:19:47;;;;;;;20.00;9.35;;;;;;;10.77;73.03;96754.48;120306;1149;104509;-77
2021/01/24 10:22:14;;;;;;;21.13;9.33;;;;;;;10.68;73.32;96757.15;120141;1149;104422;-75
2021/01/24 10:24:41;;;;;;;21.80;9.03;;;;;;;10.60;73.11;96753.69;120270;1149;104440;-75
2021/01/24 10:27:08;;;;;;;21.17;10.13;;;;;;;10.49;72.80;96762.81;121586;1149;104381;-73
2021/01/24 10:29:53;;;;;;;20.53;9.33;;;;;;;10.27;72.92;96763.30;120132;1150;104417;-73
2021/01/24 10:32:20;;;;;;;19.90;9.87;;;;;;;10.06;72.91;96757.66;120123;1149;104485;-73
2021/01/24 10:35:01;;;;;;;19.47;9.63;;;;;;;9.89;73.02;96760.29;120136;1149;104843;-76
2021/01/24 10:37:29;;;;;;;20.57;10.27;;;;;;;9.74;72.71;96759.30;120093;1150;104431;-73
2021/01/24 10:39:59;;;;;;;23.03;10.63;;;;;;;9.70;73.08;96766.73;120194;1149;104342;-70
2021/01/24 10:42:26;;;;;;;21.63;10.43;;;;;;;9.69;72.70;96754.45;122054;1150;103208;-71
2021/01/24 10:44:53;;;;;;;24.23;10.87;;;;;;;9.56;72.73;96760.23;122095;1148;103345;-71
2021/01/24 10:47:21;;;;;;;23.63;10.53;;;;;;;9.58;72.60;96744.17;121428;1149;104441;-74
2021/01/24 10:49:48;;;;;;;22.40;11.13;;;;;;;9.65;72.71;96735.38;120189;1151;104445;-70
2021/01/24 10:52:15;;;;;;;19.77;10.57;;;;;;;9.75;73.15;96721.95;120100;1149;104384;-74
2021/01/24 10:54:42;;;;;;;21.40;11.80;;;;;;;9.88;72.60;96721.45;120237;1150;104486;-71
2021/01/24 10:57:09;;;;;;;23.35;12.53;;;;;;;9.92;72.51;96706.04;120145;1150;104364;-74
2021/01/24 10:59:36;;;;;;;23.43;12.27;;;;;;;9.96;72.38;96712.69;120191;1150;104430;-73
2021/01/24 11:02:03;;;;;;;22.07;11.27;;;;;;;10.00;72.06;96719.30;120143;1150;104377;-71
2021/01/24 11:04:34;;;;;;;23.93;11.83;;;;;;;10.08;72.68;96719.30;120221;1150;104433;-68
2021/01/24 11:07:02;;;;;;;21.80;11.40;;;;;;;10.21;72.29;96707.35;120278;1150;104430;-69
2021/01/24 11:09:29;;;;;;;22.83;11.00;;;;;;;10.24;72.07;96709.67;120141;1150;104356;-74
2021/01/24 11:11:59;;;;;;;21.37;10.77;;;;;;;10.31;72.85;96718.64;120126;1150;104903;-71
2021/01/24 11:14:27;;;;;;;21.50;12.10;;;;;;;10.33;72.22;96703.36;120159;1150;104368;-72
2021/01/24 11:16:54;;;;;;;21.83;10.77;;;;;;;10.38;71.86;96708.16;120092;1149;104514;-71
2021/01/24 11:19:22;;;;;;;18.23;8.70;;;;;;;10.38;71.40;96709.00;120180;1150;104462;-72
2021/01/24 11:21:49;;;;;;;19.50;9.00;;;;;;;10.25;71.31;96709.49;120061;1150;104367;-73
2021/01/24 11:24:16;;;;;;;17.53;8.37;;;;;;;10.22;71.83;96736.39;120075;1150;104545;-72
2021/01/24 11:26:43;;;;;;;21.33;10.13;;;;;;;10.30;72.11;96748.86;120145;1150;104317;-72
2021/01/24 11:29:10;;;;;;;20.97;10.60;;;;;;;10.39;72.26;96747.05;120088;1150;104497;-72
2021/01/24 11:31:37;;;;;;;22.43;12.70;;;;;;;10.36;72.13;96750.02;120041;1150;104383;-72